THY62C LTFM-LROP
Flight info
| Callsign | THY62C |
|---|---|
| Flight time | 0h 48m |
| Altitude | 30000 |
| Route | IBLAX P727 BGS L622 GONGO DCT KOMAN DCT OBUGA |
| Aircraft | A359/H-SDE2E3GHIJ3J4J5LM1ORWXY/LB1D1 |
Departure
| Time | 2026-05-05 07:36 |
|---|---|
| Airport | İstanbul Airport (LTFM) |
Arrival
| Time | 2026-05-05 08:24 |
|---|---|
| Airport | Bucharest Henri Coandă International Airport (LROP) |
| Time | Latitude | Longitude | Altitude | Speed | Heading |
|---|---|---|---|---|---|
| 2026-05-05 06:54 | 41.26607 | 28.74125 | 340 ft | 0 kts | 88° |
| 2026-05-05 06:58 | 41.26607 | 28.74124 | 340 ft | 0 kts | 88° |
| 2026-05-05 07:04 | 41.26607 | 28.74123 | 340 ft | 0 kts | 88° |
| 2026-05-05 07:10 | 41.26607 | 28.74122 | 340 ft | 0 kts | 88° |
| 2026-05-05 07:12 | 41.26608 | 28.74126 | 341 ft | 0 kts | 88° |
| 2026-05-05 07:13 | 41.26607 | 28.74126 | 340 ft | 0 kts | 88° |
| 2026-05-05 07:13 | 41.26608 | 28.74126 | 340 ft | 0 kts | 88° |
| 2026-05-05 07:13 | 41.26607 | 28.74126 | 340 ft | 0 kts | 88° |
| 2026-05-05 07:13 | 41.26608 | 28.74126 | 340 ft | 0 kts | 88° |
| 2026-05-05 07:14 | 41.26607 | 28.74126 | 340 ft | 0 kts | 88° |
| 2026-05-05 07:14 | 41.26607 | 28.74125 | 340 ft | 0 kts | 88° |
| 2026-05-05 07:21 | 41.26607 | 28.74123 | 335 ft | 1 kts | 88° |
| 2026-05-05 07:21 | 41.26607 | 28.74109 | 336 ft | 1 kts | 85° |
| 2026-05-05 07:21 | 41.26606 | 28.74097 | 338 ft | 0 kts | 79° |
| 2026-05-05 07:22 | 41.26605 | 28.74088 | 337 ft | 3 kts | 77° |
| 2026-05-05 07:22 | 41.26599 | 28.74065 | 336 ft | 2 kts | 71° |
| 2026-05-05 07:22 | 41.26592 | 28.74042 | 335 ft | 3 kts | 54° |
| 2026-05-05 07:22 | 41.26579 | 28.74024 | 335 ft | 3 kts | 33° |
| 2026-05-05 07:23 | 41.26562 | 28.74012 | 335 ft | 3 kts | 13° |
| 2026-05-05 07:23 | 41.26543 | 28.74010 | 335 ft | 3 kts | 353° |
| 2026-05-05 07:23 | 41.26527 | 28.74014 | 335 ft | 3 kts | 338° |
| 2026-05-05 07:23 | 41.26510 | 28.74022 | 335 ft | 3 kts | 349° |
| 2026-05-05 07:24 | 41.26500 | 28.74023 | 335 ft | 0 kts | 359° |
| 2026-05-05 07:27 | 41.26500 | 28.74024 | 335 ft | 0 kts | 359° |
| 2026-05-05 07:27 | 41.26500 | 28.74023 | 335 ft | 0 kts | 359° |
| 2026-05-05 07:28 | 41.26500 | 28.74024 | 335 ft | 0 kts | 359° |
| 2026-05-05 07:28 | 41.26511 | 28.74024 | 335 ft | 7 kts | 1° |
| 2026-05-05 07:28 | 41.26594 | 28.74024 | 335 ft | 15 kts | 359° |
| 2026-05-05 07:29 | 41.26706 | 28.74021 | 338 ft | 17 kts | 359° |
| 2026-05-05 07:29 | 41.26832 | 28.74018 | 339 ft | 20 kts | 359° |
| 2026-05-05 07:29 | 41.26941 | 28.74009 | 337 ft | 10 kts | 335° |
| 2026-05-05 07:29 | 41.26963 | 28.73926 | 340 ft | 11 kts | 272° |
| 2026-05-05 07:30 | 41.26964 | 28.73806 | 340 ft | 15 kts | 269° |
| 2026-05-05 07:30 | 41.26958 | 28.73472 | 336 ft | 21 kts | 269° |
| 2026-05-05 07:30 | 41.26956 | 28.73263 | 337 ft | 24 kts | 269° |
| 2026-05-05 07:31 | 41.26954 | 28.73081 | 340 ft | 13 kts | 269° |
| 2026-05-05 07:31 | 41.26921 | 28.72996 | 336 ft | 11 kts | 200° |
| 2026-05-05 07:31 | 41.26828 | 28.72991 | 338 ft | 15 kts | 179° |
| 2026-05-05 07:31 | 41.26708 | 28.72993 | 336 ft | 19 kts | 179° |
| 2026-05-05 07:32 | 41.26591 | 28.72995 | 336 ft | 18 kts | 179° |
| 2026-05-05 07:32 | 41.26456 | 28.72998 | 337 ft | 21 kts | 179° |
| 2026-05-05 07:32 | 41.26332 | 28.72998 | 337 ft | 8 kts | 193° |
| 2026-05-05 07:32 | 41.26312 | 28.72968 | 335 ft | 3 kts | 244° |
| 2026-05-05 07:33 | 41.26311 | 28.72964 | 335 ft | 0 kts | 247° |
| 2026-05-05 07:35 | 41.26308 | 28.72949 | 336 ft | 5 kts | 253° |
| 2026-05-05 07:35 | 41.26302 | 28.72863 | 336 ft | 14 kts | 267° |
| 2026-05-05 07:35 | 41.26330 | 28.72780 | 336 ft | 10 kts | 343° |
| 2026-05-05 07:36 | 41.26406 | 28.72774 | 339 ft | 12 kts | 359° |
| 2026-05-05 07:36 | 41.26618 | 28.72769 | 336 ft | 72 kts | 359° |
| 2026-05-05 07:36 | 41.27481 | 28.72749 | 385 ft | 168 kts | 359° |
| 2026-05-05 07:36 | 41.28716 | 28.72711 | 1448 ft | 185 kts | 359° |
| 2026-05-05 07:37 | 41.30037 | 28.72672 | 2884 ft | 195 kts | 359° |
| 2026-05-05 07:37 | 41.31415 | 28.72631 | 4266 ft | 207 kts | 359° |
| 2026-05-05 07:37 | 41.32906 | 28.72587 | 5656 ft | 222 kts | 359° |
| 2026-05-05 07:37 | 41.34496 | 28.72543 | 7005 ft | 235 kts | 359° |
| 2026-05-05 07:38 | 41.36144 | 28.72523 | 7911 ft | 239 kts | 0° |
| 2026-05-05 07:38 | 41.37834 | 28.72369 | 8483 ft | 251 kts | 351° |
| 2026-05-05 07:38 | 41.39532 | 28.71660 | 9106 ft | 260 kts | 339° |
| 2026-05-05 07:38 | 41.41186 | 28.70633 | 9835 ft | 265 kts | 335° |
| 2026-05-05 07:39 | 41.42833 | 28.69450 | 10373 ft | 276 kts | 333° |
| 2026-05-05 07:39 | 41.44563 | 28.68140 | 10653 ft | 295 kts | 333° |
| 2026-05-05 07:39 | 41.46372 | 28.66758 | 10878 ft | 312 kts | 333° |
| 2026-05-05 07:39 | 41.48309 | 28.65293 | 11169 ft | 327 kts | 333° |
| 2026-05-05 07:40 | 41.50317 | 28.63797 | 11634 ft | 334 kts | 333° |
| 2026-05-05 07:40 | 41.52364 | 28.62288 | 12183 ft | 338 kts | 333° |
| 2026-05-05 07:40 | 41.54433 | 28.60773 | 12771 ft | 341 kts | 334° |
| 2026-05-05 07:40 | 41.56527 | 28.59248 | 13327 ft | 344 kts | 334° |
| 2026-05-05 07:41 | 41.58637 | 28.57712 | 13893 ft | 347 kts | 334° |
| 2026-05-05 07:41 | 41.60741 | 28.56181 | 14376 ft | 350 kts | 334° |
| 2026-05-05 07:41 | 41.62887 | 28.54617 | 14888 ft | 353 kts | 334° |
| 2026-05-05 07:41 | 41.65046 | 28.53042 | 15393 ft | 355 kts | 334° |
| 2026-05-05 07:42 | 41.67221 | 28.51453 | 15899 ft | 357 kts | 334° |
| 2026-05-05 07:42 | 41.69409 | 28.49852 | 16408 ft | 360 kts | 333° |
| 2026-05-05 07:42 | 41.71614 | 28.48238 | 16919 ft | 363 kts | 333° |
| 2026-05-05 07:42 | 41.73837 | 28.46609 | 17431 ft | 365 kts | 333° |
| 2026-05-05 07:43 | 41.76073 | 28.44970 | 17920 ft | 368 kts | 333° |
| 2026-05-05 07:43 | 41.78323 | 28.43318 | 18413 ft | 370 kts | 333° |
| 2026-05-05 07:43 | 41.80592 | 28.41652 | 18823 ft | 373 kts | 333° |
| 2026-05-05 07:43 | 41.82850 | 28.39993 | 19225 ft | 376 kts | 333° |
| 2026-05-05 07:44 | 41.85150 | 28.38301 | 19634 ft | 379 kts | 333° |
| 2026-05-05 07:44 | 41.87469 | 28.36593 | 20031 ft | 382 kts | 333° |
| 2026-05-05 07:44 | 41.89803 | 28.34873 | 20441 ft | 384 kts | 332° |
| 2026-05-05 07:44 | 41.92155 | 28.33138 | 20842 ft | 387 kts | 332° |
| 2026-05-05 07:45 | 41.94519 | 28.31380 | 21230 ft | 390 kts | 331° |
| 2026-05-05 07:45 | 41.96791 | 28.29358 | 21626 ft | 394 kts | 324° |
| 2026-05-05 07:45 | 41.98844 | 28.26902 | 22007 ft | 398 kts | 315° |
| 2026-05-05 07:45 | 42.00602 | 28.24075 | 22394 ft | 401 kts | 309° |
| 2026-05-05 07:46 | 42.02253 | 28.21035 | 22775 ft | 404 kts | 307° |
| 2026-05-05 07:46 | 42.03846 | 28.17906 | 23171 ft | 407 kts | 305° |
| 2026-05-05 07:46 | 42.05417 | 28.14729 | 23560 ft | 409 kts | 305° |
| 2026-05-05 07:46 | 42.06991 | 28.11524 | 23894 ft | 412 kts | 305° |
| 2026-05-05 07:47 | 42.08576 | 28.08307 | 24242 ft | 413 kts | 305° |
| 2026-05-05 07:47 | 42.10178 | 28.05080 | 24590 ft | 415 kts | 305° |
| 2026-05-05 07:47 | 42.11791 | 28.01847 | 24939 ft | 417 kts | 305° |
| 2026-05-05 07:47 | 42.13393 | 27.98646 | 25284 ft | 419 kts | 305° |
| 2026-05-05 07:48 | 42.15027 | 27.95386 | 25649 ft | 420 kts | 305° |
| 2026-05-05 07:48 | 42.16665 | 27.92115 | 26039 ft | 423 kts | 305° |
| 2026-05-05 07:48 | 42.18315 | 27.88820 | 26424 ft | 425 kts | 305° |
| 2026-05-05 07:48 | 42.19979 | 27.85516 | 26826 ft | 427 kts | 306° |
| 2026-05-05 07:49 | 42.21848 | 27.82406 | 27234 ft | 428 kts | 314° |
| 2026-05-05 07:49 | 42.24044 | 27.79690 | 27660 ft | 429 kts | 323° |
| 2026-05-05 07:49 | 42.26531 | 27.77447 | 28099 ft | 432 kts | 329° |
| 2026-05-05 07:49 | 42.29102 | 27.75434 | 28526 ft | 434 kts | 331° |
| 2026-05-05 07:50 | 42.31757 | 27.73475 | 28985 ft | 437 kts | 332° |
| 2026-05-05 07:50 | 42.34445 | 27.71542 | 29469 ft | 439 kts | 332° |
| 2026-05-05 07:50 | 42.37160 | 27.69599 | 29904 ft | 442 kts | 332° |
| 2026-05-05 07:50 | 42.39887 | 27.67635 | 30068 ft | 449 kts | 332° |
| 2026-05-05 07:51 | 42.45488 | 27.63559 | 30074 ft | 460 kts | 332° |
| 2026-05-05 07:51 | 42.51082 | 27.59446 | 30076 ft | 460 kts | 332° |
| 2026-05-05 07:52 | 42.56700 | 27.55298 | 30076 ft | 460 kts | 332° |
| 2026-05-05 07:52 | 42.62056 | 27.50543 | 30073 ft | 460 kts | 326° |
| 2026-05-05 07:53 | 42.67266 | 27.45471 | 30074 ft | 461 kts | 325° |
| 2026-05-05 07:53 | 42.72446 | 27.40350 | 30069 ft | 461 kts | 325° |
| 2026-05-05 07:54 | 42.77595 | 27.35256 | 30067 ft | 461 kts | 325° |
| 2026-05-05 07:54 | 42.82782 | 27.30129 | 30062 ft | 461 kts | 325° |
| 2026-05-05 07:55 | 42.87973 | 27.24993 | 30057 ft | 461 kts | 325° |
| 2026-05-05 07:55 | 42.93123 | 27.19886 | 30051 ft | 461 kts | 325° |
| 2026-05-05 07:56 | 42.98303 | 27.14736 | 30064 ft | 460 kts | 325° |
| 2026-05-05 07:56 | 43.03474 | 27.09584 | 30057 ft | 460 kts | 325° |
| 2026-05-05 07:57 | 43.08642 | 27.04426 | 30056 ft | 460 kts | 325° |
| 2026-05-05 07:57 | 43.13873 | 26.99374 | 30056 ft | 460 kts | 328° |
| 2026-05-05 07:58 | 43.19155 | 26.94655 | 29345 ft | 452 kts | 328° |
| 2026-05-05 07:58 | 43.21806 | 26.92301 | 28192 ft | 457 kts | 328° |
| 2026-05-05 07:58 | 43.24482 | 26.89910 | 27394 ft | 460 kts | 328° |
| 2026-05-05 07:59 | 43.27157 | 26.87498 | 26866 ft | 459 kts | 328° |
| 2026-05-05 07:59 | 43.29817 | 26.85083 | 26345 ft | 456 kts | 328° |
| 2026-05-05 07:59 | 43.32449 | 26.82680 | 25845 ft | 453 kts | 328° |
| 2026-05-05 07:59 | 43.35060 | 26.80290 | 25351 ft | 449 kts | 328° |
| 2026-05-05 08:00 | 43.37651 | 26.77916 | 24871 ft | 446 kts | 328° |
| 2026-05-05 08:00 | 43.40193 | 26.75585 | 24398 ft | 444 kts | 328° |
| 2026-05-05 08:00 | 43.42750 | 26.73238 | 23931 ft | 441 kts | 328° |
| 2026-05-05 08:00 | 43.45297 | 26.70899 | 23435 ft | 438 kts | 328° |
| 2026-05-05 08:01 | 43.47824 | 26.68578 | 22882 ft | 435 kts | 328° |
| 2026-05-05 08:01 | 43.50334 | 26.66271 | 22332 ft | 432 kts | 328° |
| 2026-05-05 08:01 | 43.52824 | 26.63981 | 21817 ft | 429 kts | 328° |
| 2026-05-05 08:01 | 43.55296 | 26.61704 | 21285 ft | 425 kts | 328° |
| 2026-05-05 08:02 | 43.57744 | 26.59444 | 20779 ft | 422 kts | 328° |
| 2026-05-05 08:02 | 43.60174 | 26.57199 | 20274 ft | 419 kts | 328° |
| 2026-05-05 08:02 | 43.62558 | 26.54995 | 19815 ft | 416 kts | 329° |
| 2026-05-05 08:02 | 43.64956 | 26.52778 | 19375 ft | 413 kts | 329° |
| 2026-05-05 08:03 | 43.67336 | 26.50576 | 18946 ft | 411 kts | 329° |
| 2026-05-05 08:03 | 43.69699 | 26.48386 | 18516 ft | 408 kts | 329° |
| 2026-05-05 08:03 | 43.72052 | 26.46203 | 18059 ft | 406 kts | 329° |
| 2026-05-05 08:03 | 43.74385 | 26.44034 | 17580 ft | 403 kts | 329° |
| 2026-05-05 08:04 | 43.76704 | 26.41879 | 17166 ft | 401 kts | 329° |
| 2026-05-05 08:04 | 43.79011 | 26.39733 | 16869 ft | 399 kts | 329° |
| 2026-05-05 08:04 | 43.81280 | 26.37621 | 16609 ft | 397 kts | 329° |
| 2026-05-05 08:04 | 43.83569 | 26.35488 | 16357 ft | 396 kts | 329° |
| 2026-05-05 08:05 | 43.85847 | 26.33361 | 16100 ft | 395 kts | 329° |
| 2026-05-05 08:05 | 43.88122 | 26.31236 | 15847 ft | 393 kts | 329° |
| 2026-05-05 08:05 | 43.90389 | 26.29117 | 15599 ft | 392 kts | 329° |
| 2026-05-05 08:05 | 43.92646 | 26.27006 | 15347 ft | 391 kts | 329° |
| 2026-05-05 08:06 | 43.94900 | 26.24895 | 15113 ft | 390 kts | 329° |
| 2026-05-05 08:06 | 43.97144 | 26.22790 | 14931 ft | 389 kts | 329° |
| 2026-05-05 08:06 | 43.99355 | 26.20715 | 14766 ft | 388 kts | 328° |
| 2026-05-05 08:06 | 44.01568 | 26.18577 | 14590 ft | 388 kts | 328° |
| 2026-05-05 08:07 | 44.03772 | 26.16417 | 14432 ft | 387 kts | 327° |
| 2026-05-05 08:07 | 44.05969 | 26.14264 | 14262 ft | 386 kts | 327° |
| 2026-05-05 08:07 | 44.08153 | 26.12093 | 14091 ft | 386 kts | 326° |
| 2026-05-05 08:07 | 44.10117 | 26.09534 | 13913 ft | 390 kts | 313° |
| 2026-05-05 08:08 | 44.11570 | 26.06328 | 13739 ft | 395 kts | 297° |
| 2026-05-05 08:08 | 44.12523 | 26.02734 | 13541 ft | 397 kts | 291° |
| 2026-05-05 08:08 | 44.13349 | 25.99071 | 13368 ft | 396 kts | 290° |
| 2026-05-05 08:08 | 44.14152 | 25.95462 | 13188 ft | 395 kts | 290° |
| 2026-05-05 08:09 | 44.14973 | 25.91814 | 12996 ft | 394 kts | 291° |
| 2026-05-05 08:09 | 44.15797 | 25.88173 | 12811 ft | 394 kts | 291° |
| 2026-05-05 08:09 | 44.16622 | 25.84544 | 12636 ft | 393 kts | 291° |
| 2026-05-05 08:09 | 44.17446 | 25.80920 | 12445 ft | 392 kts | 291° |
| 2026-05-05 08:10 | 44.18267 | 25.77308 | 12259 ft | 391 kts | 291° |
| 2026-05-05 08:10 | 44.19085 | 25.73703 | 11884 ft | 390 kts | 291° |
| 2026-05-05 08:10 | 44.19900 | 25.70115 | 11632 ft | 383 kts | 290° |
| 2026-05-05 08:10 | 44.20668 | 25.66706 | 11515 ft | 364 kts | 291° |
| 2026-05-05 08:11 | 44.21406 | 25.63427 | 11409 ft | 346 kts | 291° |
| 2026-05-05 08:11 | 44.22109 | 25.60305 | 11296 ft | 330 kts | 291° |
| 2026-05-05 08:11 | 44.22781 | 25.57324 | 11185 ft | 314 kts | 291° |
| 2026-05-05 08:11 | 44.23593 | 25.54597 | 11079 ft | 295 kts | 306° |
| 2026-05-05 08:12 | 44.24924 | 25.52580 | 10948 ft | 274 kts | 329° |
| 2026-05-05 08:12 | 44.26590 | 25.51504 | 10817 ft | 259 kts | 349° |
| 2026-05-05 08:12 | 44.28324 | 25.51106 | 10526 ft | 255 kts | 356° |
| 2026-05-05 08:12 | 44.30086 | 25.50856 | 10225 ft | 255 kts | 357° |
| 2026-05-05 08:13 | 44.31848 | 25.50606 | 9920 ft | 256 kts | 356° |
| 2026-05-05 08:13 | 44.33657 | 25.50341 | 9759 ft | 264 kts | 356° |
| 2026-05-05 08:13 | 44.35480 | 25.50064 | 9541 ft | 263 kts | 356° |
| 2026-05-05 08:13 | 44.37299 | 25.49780 | 9180 ft | 262 kts | 356° |
| 2026-05-05 08:14 | 44.39103 | 25.49495 | 8852 ft | 260 kts | 356° |
| 2026-05-05 08:14 | 44.40895 | 25.49213 | 8547 ft | 259 kts | 356° |
| 2026-05-05 08:14 | 44.42663 | 25.48933 | 8244 ft | 258 kts | 356° |
| 2026-05-05 08:14 | 44.44447 | 25.48651 | 7931 ft | 258 kts | 356° |
| 2026-05-05 08:15 | 44.46218 | 25.48368 | 7702 ft | 253 kts | 356° |
| 2026-05-05 08:15 | 44.47933 | 25.48096 | 7572 ft | 243 kts | 356° |
| 2026-05-05 08:15 | 44.49576 | 25.48093 | 7415 ft | 232 kts | 12° |
| 2026-05-05 08:15 | 44.51012 | 25.49003 | 7162 ft | 227 kts | 40° |
| 2026-05-05 08:16 | 44.51931 | 25.50774 | 6925 ft | 228 kts | 67° |
| 2026-05-05 08:16 | 44.52268 | 25.52953 | 6661 ft | 230 kts | 81° |
| 2026-05-05 08:16 | 44.52428 | 25.55188 | 6392 ft | 230 kts | 82° |
| 2026-05-05 08:16 | 44.52579 | 25.57390 | 6110 ft | 230 kts | 81° |
| 2026-05-05 08:17 | 44.52743 | 25.59616 | 5874 ft | 229 kts | 81° |
| 2026-05-05 08:17 | 44.52912 | 25.61842 | 5609 ft | 230 kts | 81° |
| 2026-05-05 08:17 | 44.53082 | 25.64067 | 5347 ft | 230 kts | 81° |
| 2026-05-05 08:17 | 44.53255 | 25.66295 | 5081 ft | 229 kts | 81° |
| 2026-05-05 08:18 | 44.53429 | 25.68519 | 4821 ft | 230 kts | 80° |
| 2026-05-05 08:18 | 44.53609 | 25.70749 | 4574 ft | 231 kts | 81° |
| 2026-05-05 08:18 | 44.53785 | 25.72940 | 4376 ft | 226 kts | 81° |
| 2026-05-05 08:18 | 44.53949 | 25.75087 | 4287 ft | 217 kts | 81° |
| 2026-05-05 08:19 | 44.54108 | 25.77141 | 4250 ft | 207 kts | 81° |
| 2026-05-05 08:19 | 44.54257 | 25.79106 | 4233 ft | 199 kts | 81° |
| 2026-05-05 08:19 | 44.54403 | 25.81009 | 4144 ft | 194 kts | 81° |
| 2026-05-05 08:19 | 44.54550 | 25.82878 | 3964 ft | 191 kts | 81° |
| 2026-05-05 08:20 | 44.54693 | 25.84656 | 3913 ft | 175 kts | 79° |
| 2026-05-05 08:20 | 44.54818 | 25.86253 | 3902 ft | 156 kts | 80° |
| 2026-05-05 08:20 | 44.54925 | 25.87690 | 3853 ft | 143 kts | 80° |
| 2026-05-05 08:20 | 44.55027 | 25.89032 | 3702 ft | 137 kts | 79° |
| 2026-05-05 08:21 | 44.55133 | 25.90355 | 3410 ft | 136 kts | 80° |
| 2026-05-05 08:21 | 44.55239 | 25.91687 | 3207 ft | 139 kts | 82° |
| 2026-05-05 08:21 | 44.55344 | 25.93037 | 3128 ft | 139 kts | 82° |
| 2026-05-05 08:21 | 44.55446 | 25.94376 | 2936 ft | 138 kts | 82° |
| 2026-05-05 08:22 | 44.55542 | 25.95703 | 2767 ft | 136 kts | 83° |
| 2026-05-05 08:22 | 44.55651 | 25.97009 | 2597 ft | 135 kts | 82° |
| 2026-05-05 08:22 | 44.55756 | 25.98308 | 2455 ft | 134 kts | 83° |
| 2026-05-05 08:22 | 44.55859 | 25.99585 | 2170 ft | 133 kts | 84° |
| 2026-05-05 08:23 | 44.55960 | 26.00881 | 1907 ft | 135 kts | 85° |
| 2026-05-05 08:23 | 44.56059 | 26.02194 | 1654 ft | 136 kts | 86° |
| 2026-05-05 08:23 | 44.56164 | 26.03510 | 1318 ft | 137 kts | 84° |
| 2026-05-05 08:23 | 44.56266 | 26.04845 | 1005 ft | 139 kts | 86° |
| 2026-05-05 08:24 | 44.56358 | 26.06198 | 662 ft | 140 kts | 84° |
| 2026-05-05 08:24 | 44.56457 | 26.07548 | 395 ft | 136 kts | 85° |
| 2026-05-05 08:24 | 44.56552 | 26.08794 | 324 ft | 114 kts | 83° |
| 2026-05-05 08:24 | 44.56607 | 26.09526 | 326 ft | 48 kts | 84° |
| 2026-05-05 08:25 | 44.56640 | 26.09974 | 326 ft | 44 kts | 84° |
| 2026-05-05 08:25 | 44.56671 | 26.10389 | 328 ft | 43 kts | 84° |
| 2026-05-05 08:25 | 44.56702 | 26.10725 | 325 ft | 20 kts | 68° |
| 2026-05-05 08:25 | 44.56778 | 26.10765 | 323 ft | 10 kts | 353° |
| 2026-05-05 08:26 | 44.56859 | 26.10752 | 324 ft | 14 kts | 354° |
| 2026-05-05 08:26 | 44.56966 | 26.10728 | 323 ft | 17 kts | 341° |
| 2026-05-05 08:26 | 44.57048 | 26.10600 | 323 ft | 20 kts | 297° |
| 2026-05-05 08:26 | 44.57063 | 26.10407 | 323 ft | 22 kts | 264° |
| 2026-05-05 08:27 | 44.57045 | 26.10185 | 324 ft | 24 kts | 263° |
| 2026-05-05 08:27 | 44.57025 | 26.09935 | 327 ft | 27 kts | 263° |
| 2026-05-05 08:27 | 44.57004 | 26.09663 | 323 ft | 29 kts | 264° |
| 2026-05-05 08:27 | 44.56982 | 26.09372 | 325 ft | 30 kts | 264° |
| 2026-05-05 08:28 | 44.56961 | 26.09102 | 325 ft | 26 kts | 263° |
| 2026-05-05 08:28 | 44.56943 | 26.08876 | 325 ft | 21 kts | 264° |
| 2026-05-05 08:28 | 44.56930 | 26.08694 | 325 ft | 17 kts | 264° |
| 2026-05-05 08:28 | 44.56904 | 26.08533 | 325 ft | 18 kts | 254° |
| 2026-05-05 08:29 | 44.56937 | 26.08403 | 324 ft | 15 kts | 333° |
| 2026-05-05 08:29 | 44.57009 | 26.08309 | 324 ft | 10 kts | 311° |
| 2026-05-05 08:29 | 44.57033 | 26.08270 | 322 ft | 0 kts | 310° |
| 2026-05-05 08:30 | 44.57033 | 26.08268 | 322 ft | 0 kts | 310° |